sensor_id;sensor_type;location;lat;lon;timestamp;temperature;humidity
67641;SHT31;54434;50.096;20.082;2024-01-15T00:01:15;1.41;70.10
67641;SHT31;54434;50.096;20.082;2024-01-15T00:03:51;1.41;70.08
67641;SHT31;54434;50.096;20.082;2024-01-15T00:06:31;1.40;69.89
67641;SHT31;54434;50.096;20.082;2024-01-15T00:09:07;1.42;69.76
67641;SHT31;54434;50.096;20.082;2024-01-15T00:11:44;1.42;69.68
67641;SHT31;54434;50.096;20.082;2024-01-15T00:14:20;1.42;69.48
67641;SHT31;54434;50.096;20.082;2024-01-15T00:16:57;1.42;69.50
67641;SHT31;54434;50.096;20.082;2024-01-15T00:19:33;1.41;69.50
67641;SHT31;54434;50.096;20.082;2024-01-15T00:22:10;1.41;69.48
67641;SHT31;54434;50.096;20.082;2024-01-15T00:24:46;1.41;69.37
67641;SHT31;54434;50.096;20.082;2024-01-15T00:27:23;1.41;69.23
67641;SHT31;54434;50.096;20.082;2024-01-15T00:30:00;1.43;69.31
67641;SHT31;54434;50.096;20.082;2024-01-15T00:32:37;1.41;69.26
67641;SHT31;54434;50.096;20.082;2024-01-15T00:35:14;1.41;69.22
67641;SHT31;54434;50.096;20.082;2024-01-15T00:37:51;1.42;69.03
67641;SHT31;54434;50.096;20.082;2024-01-15T00:40:27;1.42;68.91
67641;SHT31;54434;50.096;20.082;2024-01-15T00:43:04;1.43;68.91
67641;SHT31;54434;50.096;20.082;2024-01-15T00:45:40;1.44;68.78
67641;SHT31;54434;50.096;20.082;2024-01-15T00:48:17;1.44;68.80
67641;SHT31;54434;50.096;20.082;2024-01-15T00:50:54;1.44;68.86
67641;SHT31;54434;50.096;20.082;2024-01-15T00:53:30;1.44;68.92
67641;SHT31;54434;50.096;20.082;2024-01-15T00:56:07;1.43;68.90
67641;SHT31;54434;50.096;20.082;2024-01-15T00:58:43;1.43;68.75
67641;SHT31;54434;50.096;20.082;2024-01-15T01:01:20;1.43;68.70
67641;SHT31;54434;50.096;20.082;2024-01-15T01:03:56;1.42;68.61
67641;SHT31;54434;50.096;20.082;2024-01-15T01:06:33;1.42;68.60
67641;SHT31;54434;50.096;20.082;2024-01-15T01:09:10;1.42;68.57
67641;SHT31;54434;50.096;20.082;2024-01-15T01:11:46;1.42;68.56
67641;SHT31;54434;50.096;20.082;2024-01-15T01:14:23;1.39;68.56
67641;SHT31;54434;50.096;20.082;2024-01-15T01:16:59;1.38;68.65
67641;SHT31;54434;50.096;20.082;2024-01-15T01:19:36;1.36;68.75
67641;SHT31;54434;50.096;20.082;2024-01-15T01:22:13;1.36;68.87
67641;SHT31;54434;50.096;20.082;2024-01-15T01:24:50;1.38;68.80
67641;SHT31;54434;50.096;20.082;2024-01-15T01:27:26;1.38;68.88
67641;SHT31;54434;50.096;20.082;2024-01-15T01:30:04;1.38;68.99
67641;SHT31;54434;50.096;20.082;2024-01-15T01:32:42;1.40;69.00
67641;SHT31;54434;50.096;20.082;2024-01-15T01:35:18;1.41;68.95
67641;SHT31;54434;50.096;20.082;2024-01-15T01:37:55;1.42;68.97
67641;SHT31;54434;50.096;20.082;2024-01-15T01:40:32;1.40;69.12
67641;SHT31;54434;50.096;20.082;2024-01-15T01:43:10;1.39;69.03
67641;SHT31;54434;50.096;20.082;2024-01-15T01:45:46;1.39;68.93
67641;SHT31;54434;50.096;20.082;2024-01-15T01:48:23;1.40;68.60
67641;SHT31;54434;50.096;20.082;2024-01-15T01:51:02;1.42;68.57
67641;SHT31;54434;50.096;20.082;2024-01-15T01:53:40;1.42;68.56
67641;SHT31;54434;50.096;20.082;2024-01-15T01:56:19;1.42;68.62
67641;SHT31;54434;50.096;20.082;2024-01-15T01:58:56;1.43;68.70
67641;SHT31;54434;50.096;20.082;2024-01-15T02:01:34;1.43;68.61
67641;SHT31;54434;50.096;20.082;2024-01-15T02:04:11;1.43;68.47
67641;SHT31;54434;50.096;20.082;2024-01-15T02:06:52;1.44;68.52
67641;SHT31;54434;50.096;20.082;2024-01-15T02:09:29;1.43;68.44
67641;SHT31;54434;50.096;20.082;2024-01-15T02:12:07;1.44;68.39
67641;SHT31;54434;50.096;20.082;2024-01-15T02:14:44;1.44;68.22
67641;SHT31;54434;50.096;20.082;2024-01-15T02:17:20;1.44;68.23
67641;SHT31;54434;50.096;20.082;2024-01-15T02:19:57;1.45;68.16
67641;SHT31;54434;50.096;20.082;2024-01-15T02:22:34;1.44;68.23
67641;SHT31;54434;50.096;20.082;2024-01-15T02:25:11;1.44;68.24
67641;SHT31;54434;50.096;20.082;2024-01-15T02:27:47;1.45;68.19
67641;SHT31;54434;50.096;20.082;2024-01-15T02:30:24;1.47;68.19
67641;SHT31;54434;50.096;20.082;2024-01-15T02:33:05;1.46;68.06
67641;SHT31;54434;50.096;20.082;2024-01-15T02:35:42;1.44;68.00
67641;SHT31;54434;50.096;20.082;2024-01-15T02:38:22;1.43;67.93
67641;SHT31;54434;50.096;20.082;2024-01-15T02:40:58;1.43;67.87
67641;SHT31;54434;50.096;20.082;2024-01-15T02:43:35;1.40;67.89
67641;SHT31;54434;50.096;20.082;2024-01-15T02:46:12;1.38;67.91
67641;SHT31;54434;50.096;20.082;2024-01-15T02:48:49;1.38;68.01
67641;SHT31;54434;50.096;20.082;2024-01-15T02:51:25;1.39;67.91
67641;SHT31;54434;50.096;20.082;2024-01-15T02:54:02;1.41;68.05
67641;SHT31;54434;50.096;20.082;2024-01-15T02:56:39;1.39;67.93
67641;SHT31;54434;50.096;20.082;2024-01-15T02:59:15;1.39;67.92
67641;SHT31;54434;50.096;20.082;2024-01-15T03:01:51;1.38;67.77
67641;SHT31;54434;50.096;20.082;2024-01-15T03:04:28;1.36;67.66
67641;SHT31;54434;50.096;20.082;2024-01-15T03:07:05;1.34;67.69
67641;SHT31;54434;50.096;20.082;2024-01-15T03:09:41;1.34;67.74
67641;SHT31;54434;50.096;20.082;2024-01-15T03:12:18;1.32;67.67
67641;SHT31;54434;50.096;20.082;2024-01-15T03:14:54;1.30;67.68
67641;SHT31;54434;50.096;20.082;2024-01-15T03:17:31;1.28;67.83
67641;SHT31;54434;50.096;20.082;2024-01-15T03:20:09;1.26;67.96
67641;SHT31;54434;50.096;20.082;2024-01-15T03:22:46;1.27;67.93
67641;SHT31;54434;50.096;20.082;2024-01-15T03:25:23;1.25;67.79
67641;SHT31;54434;50.096;20.082;2024-01-15T03:27:59;1.25;67.55
67641;SHT31;54434;50.096;20.082;2024-01-15T03:30:36;1.24;67.65
67641;SHT31;54434;50.096;20.082;2024-01-15T03:33:13;1.23;67.53
67641;SHT31;54434;50.096;20.082;2024-01-15T03:35:50;1.23;67.36
67641;SHT31;54434;50.096;20.082;2024-01-15T03:38:28;1.23;67.33
67641;SHT31;54434;50.096;20.082;2024-01-15T03:41:05;1.22;67.13
67641;SHT31;54434;50.096;20.082;2024-01-15T03:43:41;1.22;67.04
67641;SHT31;54434;50.096;20.082;2024-01-15T03:46:17;1.18;67.17
67641;SHT31;54434;50.096;20.082;2024-01-15T03:48:54;1.18;67.13
67641;SHT31;54434;50.096;20.082;2024-01-15T03:51:30;1.17;67.13
67641;SHT31;54434;50.096;20.082;2024-01-15T03:54:08;1.15;67.12
67641;SHT31;54434;50.096;20.082;2024-01-15T03:56:46;1.13;67.16
67641;SHT31;54434;50.096;20.082;2024-01-15T03:59:23;1.12;67.03
67641;SHT31;54434;50.096;20.082;2024-01-15T04:01:59;1.10;67.03
67641;SHT31;54434;50.096;20.082;2024-01-15T04:04:40;1.07;67.05
67641;SHT31;54434;50.096;20.082;2024-01-15T04:07:17;1.05;66.93
67641;SHT31;54434;50.096;20.082;2024-01-15T04:09:53;1.04;66.90
67641;SHT31;54434;50.096;20.082;2024-01-15T04:12:31;1.03;67.06
67641;SHT31;54434;50.096;20.082;2024-01-15T04:15:09;1.04;67.10
67641;SHT31;54434;50.096;20.082;2024-01-15T04:17:46;1.04;67.16
67641;SHT31;54434;50.096;20.082;2024-01-15T04:20:22;1.03;66.98
67641;SHT31;54434;50.096;20.082;2024-01-15T04:22:59;1.05;66.89
67641;SHT31;54434;50.096;20.082;2024-01-15T04:25:36;1.07;66.66
67641;SHT31;54434;50.096;20.082;2024-01-15T04:28:15;1.10;66.54
67641;SHT31;54434;50.096;20.082;2024-01-15T04:30:51;1.13;66.44
67641;SHT31;54434;50.096;20.082;2024-01-15T04:33:28;1.15;66.14
67641;SHT31;54434;50.096;20.082;2024-01-15T04:36:07;1.18;66.12
67641;SHT31;54434;50.096;20.082;2024-01-15T04:38:43;1.18;66.09
67641;SHT31;54434;50.096;20.082;2024-01-15T04:41:20;1.20;65.80
67641;SHT31;54434;50.096;20.082;2024-01-15T04:43:57;1.24;65.55
67641;SHT31;54434;50.096;20.082;2024-01-15T04:46:34;1.27;65.54
67641;SHT31;54434;50.096;20.082;2024-01-15T04:49:10;1.28;65.57
67641;SHT31;54434;50.096;20.082;2024-01-15T04:51:47;1.31;65.61
67641;SHT31;54434;50.096;20.082;2024-01-15T04:54:24;1.33;65.64
67641;SHT31;54434;50.096;20.082;2024-01-15T04:57:01;1.35;65.62
67641;SHT31;54434;50.096;20.082;2024-01-15T04:59:38;1.35;65.45
67641;SHT31;54434;50.096;20.082;2024-01-15T05:02:14;1.38;65.37
67641;SHT31;54434;50.096;20.082;2024-01-15T05:04:51;1.40;65.27
67641;SHT31;54434;50.096;20.082;2024-01-15T05:07:27;1.40;65.26
67641;SHT31;54434;50.096;20.082;2024-01-15T05:10:04;1.41;65.30
67641;SHT31;54434;50.096;20.082;2024-01-15T05:12:42;1.43;65.11
67641;SHT31;54434;50.096;20.082;2024-01-15T05:15:18;1.43;65.28
67641;SHT31;54434;50.096;20.082;2024-01-15T05:17:55;1.43;65.41
67641;SHT31;54434;50.096;20.082;2024-01-15T05:20:31;1.46;65.42
67641;SHT31;54434;50.096;20.082;2024-01-15T05:23:08;1.47;65.20
67641;SHT31;54434;50.096;20.082;2024-01-15T05:25:45;1.50;65.28
67641;SHT31;54434;50.096;20.082;2024-01-15T05:28:22;1.53;65.24
67641;SHT31;54434;50.096;20.082;2024-01-15T05:30:58;1.54;65.06
67641;SHT31;54434;50.096;20.082;2024-01-15T05:33:37;1.57;64.88
67641;SHT31;54434;50.096;20.082;2024-01-15T05:36:13;1.59;65.04
67641;SHT31;54434;50.096;20.082;2024-01-15T05:38:50;1.61;65.01
67641;SHT31;54434;50.096;20.082;2024-01-15T05:41:26;1.63;64.74
67641;SHT31;54434;50.096;20.082;2024-01-15T05:44:05;1.65;64.61
67641;SHT31;54434;50.096;20.082;2024-01-15T05:46:42;1.68;64.57
67641;SHT31;54434;50.096;20.082;2024-01-15T05:49:18;1.70;64.64
67641;SHT31;54434;50.096;20.082;2024-01-15T05:51:55;1.70;64.48
67641;SHT31;54434;50.096;20.082;2024-01-15T05:54:32;1.70;64.47
67641;SHT31;54434;50.096;20.082;2024-01-15T05:57:08;1.69;64.47
67641;SHT31;54434;50.096;20.082;2024-01-15T05:59:45;1.68;64.43
67641;SHT31;54434;50.096;20.082;2024-01-15T06:02:22;1.68;64.63
67641;SHT31;54434;50.096;20.082;2024-01-15T06:04:59;1.65;64.78
67641;SHT31;54434;50.096;20.082;2024-01-15T06:07:36;1.63;64.79
67641;SHT31;54434;50.096;20.082;2024-01-15T06:10:13;1.62;64.64
67641;SHT31;54434;50.096;20.082;2024-01-15T06:12:50;1.63;64.74
67641;SHT31;54434;50.096;20.082;2024-01-15T06:15:26;1.61;64.79
67641;SHT31;54434;50.096;20.082;2024-01-15T06:18:03;1.59;64.92
67641;SHT31;54434;50.096;20.082;2024-01-15T06:20:41;1.57;64.79
67641;SHT31;54434;50.096;20.082;2024-01-15T06:23:17;1.57;64.82
67641;SHT31;54434;50.096;20.082;2024-01-15T06:25:54;1.55;64.95
67641;SHT31;54434;50.096;20.082;2024-01-15T06:28:30;1.54;64.99
67641;SHT31;54434;50.096;20.082;2024-01-15T06:31:07;1.54;65.01
67641;SHT31;54434;50.096;20.082;2024-01-15T06:33:44;1.52;65.39
67641;SHT31;54434;50.096;20.082;2024-01-15T06:36:21;1.50;65.49
67641;SHT31;54434;50.096;20.082;2024-01-15T06:38:58;1.49;65.57
67641;SHT31;54434;50.096;20.082;2024-01-15T06:41:34;1.49;65.53
67641;SHT31;54434;50.096;20.082;2024-01-15T06:44:15;1.49;65.60
67641;SHT31;54434;50.096;20.082;2024-01-15T06:46:53;1.49;65.47
67641;SHT31;54434;50.096;20.082;2024-01-15T06:49:34;1.50;65.52
67641;SHT31;54434;50.096;20.082;2024-01-15T06:52:11;1.50;65.76
67641;SHT31;54434;50.096;20.082;2024-01-15T06:54:47;1.52;65.98
67641;SHT31;54434;50.096;20.082;2024-01-15T06:57:24;1.51;66.13
67641;SHT31;54434;50.096;20.082;2024-01-15T07:00:01;1.52;66.18
67641;SHT31;54434;50.096;20.082;2024-01-15T07:02:40;1.54;66.20
67641;SHT31;54434;50.096;20.082;2024-01-15T07:05:17;1.56;66.34
67641;SHT31;54434;50.096;20.082;2024-01-15T07:07:55;1.58;66.24
67641;SHT31;54434;50.096;20.082;2024-01-15T07:10:31;1.61;66.19
67641;SHT31;54434;50.096;20.082;2024-01-15T07:13:08;1.64;66.10
67641;SHT31;54434;50.096;20.082;2024-01-15T07:15:45;1.66;66.01
67641;SHT31;54434;50.096;20.082;2024-01-15T07:18:22;1.69;65.84
67641;SHT31;54434;50.096;20.082;2024-01-15T07:20:59;1.72;65.70
67641;SHT31;54434;50.096;20.082;2024-01-15T07:23:36;1.75;65.71
67641;SHT31;54434;50.096;20.082;2024-01-15T07:26:14;1.78;65.61
67641;SHT31;54434;50.096;20.082;2024-01-15T07:28:51;1.83;65.40
67641;SHT31;54434;50.096;20.082;2024-01-15T07:31:28;1.85;65.25
67641;SHT31;54434;50.096;20.082;2024-01-15T07:34:05;1.89;65.12
67641;SHT31;54434;50.096;20.082;2024-01-15T07:36:42;1.93;65.11
67641;SHT31;54434;50.096;20.082;2024-01-15T07:39:19;1.97;64.89
67641;SHT31;54434;50.096;20.082;2024-01-15T07:41:57;2.00;65.03
67641;SHT31;54434;50.096;20.082;2024-01-15T07:44:33;2.04;64.69
67641;SHT31;54434;50.096;20.082;2024-01-15T07:47:09;2.08;64.52
67641;SHT31;54434;50.096;20.082;2024-01-15T07:49:46;2.13;64.72
67641;SHT31;54434;50.096;20.082;2024-01-15T07:52:22;2.17;64.41
67641;SHT31;54434;50.096;20.082;2024-01-15T07:54:59;2.22;64.38
67641;SHT31;54434;50.096;20.082;2024-01-15T07:57:37;2.25;63.97
67641;SHT31;54434;50.096;20.082;2024-01-15T08:00:17;2.29;64.08
67641;SHT31;54434;50.096;20.082;2024-01-15T08:02:53;2.34;63.85
67641;SHT31;54434;50.096;20.082;2024-01-15T08:05:31;2.37;63.64
67641;SHT31;54434;50.096;20.082;2024-01-15T08:08:08;2.41;63.70
67641;SHT31;54434;50.096;20.082;2024-01-15T08:10:45;2.45;63.48
67641;SHT31;54434;50.096;20.082;2024-01-15T08:13:21;2.49;63.37
67641;SHT31;54434;50.096;20.082;2024-01-15T08:16:01;2.54;63.41
67641;SHT31;54434;50.096;20.082;2024-01-15T08:18:38;2.61;63.84
67641;SHT31;54434;50.096;20.082;2024-01-15T08:21:16;2.72;63.69
67641;SHT31;54434;50.096;20.082;2024-01-15T08:23:53;2.81;63.34
67641;SHT31;54434;50.096;20.082;2024-01-15T08:26:32;2.87;63.13
67641;SHT31;54434;50.096;20.082;2024-01-15T08:29:08;2.93;63.11
67641;SHT31;54434;50.096;20.082;2024-01-15T08:31:45;2.96;63.27
67641;SHT31;54434;50.096;20.082;2024-01-15T08:34:22;2.97;62.89
67641;SHT31;54434;50.096;20.082;2024-01-15T08:37:03;3.00;62.92
67641;SHT31;54434;50.096;20.082;2024-01-15T08:39:40;3.00;62.87
67641;SHT31;54434;50.096;20.082;2024-01-15T08:42:17;3.02;62.71
67641;SHT31;54434;50.096;20.082;2024-01-15T08:44:54;3.03;62.77
67641;SHT31;54434;50.096;20.082;2024-01-15T08:47:31;3.07;62.89
67641;SHT31;54434;50.096;20.082;2024-01-15T08:50:09;3.13;62.62
67641;SHT31;54434;50.096;20.082;2024-01-15T08:52:46;3.14;62.51
67641;SHT31;54434;50.096;20.082;2024-01-15T08:55:22;3.18;62.46
67641;SHT31;54434;50.096;20.082;2024-01-15T08:57:59;3.19;62.23
67641;SHT31;54434;50.096;20.082;2024-01-15T09:00:36;3.19;62.00
67641;SHT31;54434;50.096;20.082;2024-01-15T09:03:14;3.18;61.57
67641;SHT31;54434;50.096;20.082;2024-01-15T09:05:51;3.17;61.82
67641;SHT31;54434;50.096;20.082;2024-01-15T09:08:28;3.13;61.54
67641;SHT31;54434;50.096;20.082;2024-01-15T09:11:05;3.06;61.73
67641;SHT31;54434;50.096;20.082;2024-01-15T09:13:42;3.01;61.41
67641;SHT31;54434;50.096;20.082;2024-01-15T09:16:18;2.92;61.08
67641;SHT31;54434;50.096;20.082;2024-01-15T09:18:55;2.80;60.73
67641;SHT31;54434;50.096;20.082;2024-01-15T09:21:32;2.79;61.25
67641;SHT31;54434;50.096;20.082;2024-01-15T09:24:08;2.83;61.09
67641;SHT31;54434;50.096;20.082;2024-01-15T09:26:45;2.84;60.95
67641;SHT31;54434;50.096;20.082;2024-01-15T09:29:21;2.84;61.10
67641;SHT31;54434;50.096;20.082;2024-01-15T09:31:58;2.84;60.94
67641;SHT31;54434;50.096;20.082;2024-01-15T09:34:36;2.83;60.96
67641;SHT31;54434;50.096;20.082;2024-01-15T09:37:13;2.85;60.84
67641;SHT31;54434;50.096;20.082;2024-01-15T09:40:13;2.85;60.68
67641;SHT31;54434;50.096;20.082;2024-01-15T09:42:50;2.81;60.58
67641;SHT31;54434;50.096;20.082;2024-01-15T09:45:28;2.85;63.67
67641;SHT31;54434;50.096;20.082;2024-01-15T09:48:07;2.87;63.77
67641;SHT31;54434;50.096;20.082;2024-01-15T09:50:44;2.86;64.18
67641;SHT31;54434;50.096;20.082;2024-01-15T09:53:22;2.87;64.92
67641;SHT31;54434;50.096;20.082;2024-01-15T09:56:00;2.92;65.20
67641;SHT31;54434;50.096;20.082;2024-01-15T09:58:37;2.93;65.62
67641;SHT31;54434;50.096;20.082;2024-01-15T10:01:15;2.94;65.81
67641;SHT31;54434;50.096;20.082;2024-01-15T10:03:55;2.90;65.78
67641;SHT31;54434;50.096;20.082;2024-01-15T10:06:32;2.85;65.68
67641;SHT31;54434;50.096;20.082;2024-01-15T10:09:11;2.91;65.80
67641;SHT31;54434;50.096;20.082;2024-01-15T10:11:48;2.94;65.32
67641;SHT31;54434;50.096;20.082;2024-01-15T10:14:25;3.03;65.25
67641;SHT31;54434;50.096;20.082;2024-01-15T10:17:03;3.21;65.01
67641;SHT31;54434;50.096;20.082;2024-01-15T10:19:49;3.29;64.74
67641;SHT31;54434;50.096;20.082;2024-01-15T10:22:25;3.18;64.67
67641;SHT31;54434;50.096;20.082;2024-01-15T10:25:03;3.01;65.46
67641;SHT31;54434;50.096;20.082;2024-01-15T10:27:42;2.96;65.88
67641;SHT31;54434;50.096;20.082;2024-01-15T10:30:32;2.90;66.09
67641;SHT31;54434;50.096;20.082;2024-01-15T10:33:09;2.84;66.24
67641;SHT31;54434;50.096;20.082;2024-01-15T10:35:48;2.81;66.49
67641;SHT31;54434;50.096;20.082;2024-01-15T10:38:26;2.80;66.34
67641;SHT31;54434;50.096;20.082;2024-01-15T10:41:03;2.70;66.36
67641;SHT31;54434;50.096;20.082;2024-01-15T10:43:40;2.61;65.97
67641;SHT31;54434;50.096;20.082;2024-01-15T10:46:17;2.51;65.84
67641;SHT31;54434;50.096;20.082;2024-01-15T10:48:54;2.40;65.47
67641;SHT31;54434;50.096;20.082;2024-01-15T10:51:31;2.29;65.41
67641;SHT31;54434;50.096;20.082;2024-01-15T10:54:09;2.22;65.44
67641;SHT31;54434;50.096;20.082;2024-01-15T10:56:46;2.15;65.41
67641;SHT31;54434;50.096;20.082;2024-01-15T10:59:24;2.12;65.36
67641;SHT31;54434;50.096;20.082;2024-01-15T11:02:01;2.07;65.22
67641;SHT31;54434;50.096;20.082;2024-01-15T11:04:38;2.01;65.29
67641;SHT31;54434;50.096;20.082;2024-01-15T11:07:16;2.00;65.34
67641;SHT31;54434;50.096;20.082;2024-01-15T11:10:02;1.95;65.07
67641;SHT31;54434;50.096;20.082;2024-01-15T11:12:43;1.91;65.04
67641;SHT31;54434;50.096;20.082;2024-01-15T11:15:25;2.00;65.15
67641;SHT31;54434;50.096;20.082;2024-01-15T11:18:03;2.09;64.90
67641;SHT31;54434;50.096;20.082;2024-01-15T11:20:45;2.24;64.71
67641;SHT31;54434;50.096;20.082;2024-01-15T11:24:02;2.47;64.46
67641;SHT31;54434;50.096;20.082;2024-01-15T11:26:46;2.60;64.01
67641;SHT31;54434;50.096;20.082;2024-01-15T11:29:32;2.66;63.59
67641;SHT31;54434;50.096;20.082;2024-01-15T11:32:10;2.76;63.61
67641;SHT31;54434;50.096;20.082;2024-01-15T11:34:56;2.95;63.14
67641;SHT31;54434;50.096;20.082;2024-01-15T11:40:42;3.33;62.04
67641;SHT31;54434;50.096;20.082;2024-01-15T11:43:23;3.37;60.86
67641;SHT31;54434;50.096;20.082;2024-01-15T11:46:00;3.42;61.22
67641;SHT31;54434;50.096;20.082;2024-01-15T11:48:45;3.52;61.35
67641;SHT31;54434;50.096;20.082;2024-01-15T11:51:30;3.59;61.17
67641;SHT31;54434;50.096;20.082;2024-01-15T11:54:08;3.50;60.51
67641;SHT31;54434;50.096;20.082;2024-01-15T11:56:48;3.35;60.73
67641;SHT31;54434;50.096;20.082;2024-01-15T11:59:26;3.27;61.39
67641;SHT31;54434;50.096;20.082;2024-01-15T12:02:03;3.28;61.56
67641;SHT31;54434;50.096;20.082;2024-01-15T12:04:42;3.29;61.20
67641;SHT31;54434;50.096;20.082;2024-01-15T12:07:19;3.28;61.16
67641;SHT31;54434;50.096;20.082;2024-01-15T12:09:56;3.27;61.50
67641;SHT31;54434;50.096;20.082;2024-01-15T12:12:39;3.23;61.23
67641;SHT31;54434;50.096;20.082;2024-01-15T12:15:31;3.15;60.97
67641;SHT31;54434;50.096;20.082;2024-01-15T12:18:09;3.13;61.20
67641;SHT31;54434;50.096;20.082;2024-01-15T12:20:47;3.13;61.62
67641;SHT31;54434;50.096;20.082;2024-01-15T12:23:27;3.08;61.01
67641;SHT31;54434;50.096;20.082;2024-01-15T12:26:04;3.03;61.22
67641;SHT31;54434;50.096;20.082;2024-01-15T12:28:42;3.01;61.17
67641;SHT31;54434;50.096;20.082;2024-01-15T12:31:18;2.99;60.99
67641;SHT31;54434;50.096;20.082;2024-01-15T12:33:57;3.01;61.14
67641;SHT31;54434;50.096;20.082;2024-01-15T12:36:34;3.05;61.10
67641;SHT31;54434;50.096;20.082;2024-01-15T12:39:14;3.10;61.10
67641;SHT31;54434;50.096;20.082;2024-01-15T12:41:50;3.12;60.53
67641;SHT31;54434;50.096;20.082;2024-01-15T12:44:27;3.13;60.67
67641;SHT31;54434;50.096;20.082;2024-01-15T12:47:06;3.14;60.75
67641;SHT31;54434;50.096;20.082;2024-01-15T12:49:42;3.18;61.15
67641;SHT31;54434;50.096;20.082;2024-01-15T12:52:36;3.24;60.97
67641;SHT31;54434;50.096;20.082;2024-01-15T12:55:14;3.28;60.67
67641;SHT31;54434;50.096;20.082;2024-01-15T12:57:51;3.28;60.61
67641;SHT31;54434;50.096;20.082;2024-01-15T13:00:28;3.25;60.30
67641;SHT31;54434;50.096;20.082;2024-01-15T13:03:06;3.20;60.42
67641;SHT31;54434;50.096;20.082;2024-01-15T13:05:43;3.13;60.48
67641;SHT31;54434;50.096;20.082;2024-01-15T13:08:21;3.10;60.77
67641;SHT31;54434;50.096;20.082;2024-01-15T13:11:00;3.02;60.70
67641;SHT31;54434;50.096;20.082;2024-01-15T13:13:37;2.95;60.75
67641;SHT31;54434;50.096;20.082;2024-01-15T13:16:15;2.87;60.74
67641;SHT31;54434;50.096;20.082;2024-01-15T13:18:59;2.77;61.00
67641;SHT31;54434;50.096;20.082;2024-01-15T13:21:36;2.68;61.46
67641;SHT31;54434;50.096;20.082;2024-01-15T13:24:13;2.62;61.51
67641;SHT31;54434;50.096;20.082;2024-01-15T13:26:49;2.54;61.59
67641;SHT31;54434;50.096;20.082;2024-01-15T13:29:26;2.50;61.91
67641;SHT31;54434;50.096;20.082;2024-01-15T13:32:03;2.45;61.75
67641;SHT31;54434;50.096;20.082;2024-01-15T13:34:41;2.39;61.79
67641;SHT31;54434;50.096;20.082;2024-01-15T13:37:18;2.33;62.09
67641;SHT31;54434;50.096;20.082;2024-01-15T13:39:56;2.29;62.29
67641;SHT31;54434;50.096;20.082;2024-01-15T13:42:33;2.26;62.26
67641;SHT31;54434;50.096;20.082;2024-01-15T13:45:11;2.23;62.69
67641;SHT31;54434;50.096;20.082;2024-01-15T13:47:48;2.21;62.79
67641;SHT31;54434;50.096;20.082;2024-01-15T13:50:25;2.16;62.26
67641;SHT31;54434;50.096;20.082;2024-01-15T13:53:01;2.13;62.47
67641;SHT31;54434;50.096;20.082;2024-01-15T13:55:39;2.09;62.38
67641;SHT31;54434;50.096;20.082;2024-01-15T13:58:15;2.01;62.53
67641;SHT31;54434;50.096;20.082;2024-01-15T14:00:53;1.94;62.71
67641;SHT31;54434;50.096;20.082;2024-01-15T14:03:30;1.89;62.66
67641;SHT31;54434;50.096;20.082;2024-01-15T14:06:07;1.83;62.98
67641;SHT31;54434;50.096;20.082;2024-01-15T14:08:55;1.80;63.01
67641;SHT31;54434;50.096;20.082;2024-01-15T14:11:46;1.74;62.92
67641;SHT31;54434;50.096;20.082;2024-01-15T14:14:23;1.68;63.09
67641;SHT31;54434;50.096;20.082;2024-01-15T14:16:59;1.62;63.26
67641;SHT31;54434;50.096;20.082;2024-01-15T14:19:37;1.56;63.34
67641;SHT31;54434;50.096;20.082;2024-01-15T14:22:15;1.50;63.46
67641;SHT31;54434;50.096;20.082;2024-01-15T14:24:51;1.46;63.55
67641;SHT31;54434;50.096;20.082;2024-01-15T14:27:28;1.42;63.69
67641;SHT31;54434;50.096;20.082;2024-01-15T14:30:07;1.37;63.85
67641;SHT31;54434;50.096;20.082;2024-01-15T14:32:48;1.34;63.82
67641;SHT31;54434;50.096;20.082;2024-01-15T14:35:26;1.31;64.01
67641;SHT31;54434;50.096;20.082;2024-01-15T14:38:03;1.26;64.10
67641;SHT31;54434;50.096;20.082;2024-01-15T14:40:40;1.23;64.24
67641;SHT31;54434;50.096;20.082;2024-01-15T14:43:17;1.20;64.32
67641;SHT31;54434;50.096;20.082;2024-01-15T14:45:57;1.16;64.36
67641;SHT31;54434;50.096;20.082;2024-01-15T14:48:34;1.13;64.35
67641;SHT31;54434;50.096;20.082;2024-01-15T14:51:11;1.11;64.40
67641;SHT31;54434;50.096;20.082;2024-01-15T14:53:48;1.08;64.35
67641;SHT31;54434;50.096;20.082;2024-01-15T14:56:25;1.07;64.47
67641;SHT31;54434;50.096;20.082;2024-01-15T14:59:03;1.02;64.63
67641;SHT31;54434;50.096;20.082;2024-01-15T15:01:39;0.99;64.62
67641;SHT31;54434;50.096;20.082;2024-01-15T15:04:17;0.97;64.72
67641;SHT31;54434;50.096;20.082;2024-01-15T15:06:53;0.94;64.94
67641;SHT31;54434;50.096;20.082;2024-01-15T15:09:30;0.92;64.82
67641;SHT31;54434;50.096;20.082;2024-01-15T15:12:09;0.92;64.82
67641;SHT31;54434;50.096;20.082;2024-01-15T15:14:46;0.90;64.96
67641;SHT31;54434;50.096;20.082;2024-01-15T15:17:41;0.87;65.08
67641;SHT31;54434;50.096;20.082;2024-01-15T15:20:18;0.82;65.18
67641;SHT31;54434;50.096;20.082;2024-01-15T15:22:54;0.78;65.46
67641;SHT31;54434;50.096;20.082;2024-01-15T15:25:31;0.76;65.47
67641;SHT31;54434;50.096;20.082;2024-01-15T15:28:08;0.75;65.57
67641;SHT31;54434;50.096;20.082;2024-01-15T15:30:46;0.74;65.73
67641;SHT31;54434;50.096;20.082;2024-01-15T15:33:23;0.73;65.87
67641;SHT31;54434;50.096;20.082;2024-01-15T15:36:00;0.73;66.01
67641;SHT31;54434;50.096;20.082;2024-01-15T15:38:38;0.70;66.08
67641;SHT31;54434;50.096;20.082;2024-01-15T15:41:14;0.68;66.28
67641;SHT31;54434;50.096;20.082;2024-01-15T15:43:51;0.71;66.36
67641;SHT31;54434;50.096;20.082;2024-01-15T15:46:27;0.75;66.37
67641;SHT31;54434;50.096;20.082;2024-01-15T15:49:05;0.78;66.37
67641;SHT31;54434;50.096;20.082;2024-01-15T15:51:45;0.82;66.28
67641;SHT31;54434;50.096;20.082;2024-01-15T15:54:22;0.83;66.34
67641;SHT31;54434;50.096;20.082;2024-01-15T15:56:58;0.85;66.30
67641;SHT31;54434;50.096;20.082;2024-01-15T15:59:36;0.86;66.30
67641;SHT31;54434;50.096;20.082;2024-01-15T16:02:13;0.85;66.39
67641;SHT31;54434;50.096;20.082;2024-01-15T16:04:49;0.84;66.38
67641;SHT31;54434;50.096;20.082;2024-01-15T16:07:28;0.83;66.40
67641;SHT31;54434;50.096;20.082;2024-01-15T16:10:06;0.82;66.38
67641;SHT31;54434;50.096;20.082;2024-01-15T16:12:43;0.81;66.57
67641;SHT31;54434;50.096;20.082;2024-01-15T16:15:21;0.79;66.77
67641;SHT31;54434;50.096;20.082;2024-01-15T16:18:00;0.77;66.79
67641;SHT31;54434;50.096;20.082;2024-01-15T16:20:58;0.75;67.01
67641;SHT31;54434;50.096;20.082;2024-01-15T16:23:56;0.73;67.02
67641;SHT31;54434;50.096;20.082;2024-01-15T16:26:53;0.73;67.15
67641;SHT31;54434;50.096;20.082;2024-01-15T16:29:33;0.75;67.24
67641;SHT31;54434;50.096;20.082;2024-01-15T16:32:10;0.78;67.21
67641;SHT31;54434;50.096;20.082;2024-01-15T16:34:47;0.81;67.26
67641;SHT31;54434;50.096;20.082;2024-01-15T16:37:27;0.83;67.21
67641;SHT31;54434;50.096;20.082;2024-01-15T16:40:04;0.84;67.38